Time;durP1;ratioP1;P1;durP2;ratioP2;P2;SDS_P1;SDS_P2;PMS_P1;PMS_P2;Temp;Humidity;BMP_temperature;BMP_pressure;BME280_temperature;BME280_humidity;BME280_pressure;Samples;Min_cycle;Max_cycle;Signal;HPM_P1;HPM_P2
2023/01/13 00:02:18;;;;;;;18.58;2.55;;;9.90;76.80;;;;;;5048612;28;20062;-82
2023/01/13 00:04:46;;;;;;;18.95;2.53;;;9.80;76.80;;;;;;5047752;28;20423;-84
2023/01/13 00:07:13;;;;;;;16.83;2.20;;;9.80;76.70;;;;;;5048377;28;20140;-82
2023/01/13 00:09:40;;;;;;;15.10;2.90;;;9.70;76.80;;;;;;5047808;28;20058;-84
2023/01/13 00:12:08;;;;;;;12.70;1.77;;;9.70;76.60;;;;;;5048633;28;20054;-82
2023/01/13 00:14:36;;;;;;;18.73;2.42;;;9.70;76.70;;;;;;5031676;28;20061;-83
2023/01/13 00:17:03;;;;;;;14.65;2.05;;;9.60;77.00;;;;;;5048387;28;20540;-83
2023/01/13 00:19:30;;;;;;;19.85;3.13;;;9.60;76.80;;;;;;5047356;28;20045;-82
2023/01/13 00:21:56;;;;;;;20.77;3.70;;;9.50;76.90;;;;;;5030246;28;20140;-83
2023/01/13 00:24:23;;;;;;;20.58;3.38;;;9.50;76.30;;;;;;5048221;28;20049;-82
2023/01/13 00:26:51;;;;;;;15.63;2.63;;;9.50;76.10;;;;;;5048155;28;20059;-82
2023/01/13 00:29:20;;;;;;;28.55;4.50;;;9.40;76.00;;;;;;5026967;28;20508;-85
2023/01/13 00:31:48;;;;;;;21.95;2.95;;;9.40;75.60;;;;;;5047666;28;20081;-83
2023/01/13 00:34:15;;;;;;;19.27;2.90;;;9.40;75.30;;;;;;5047837;28;20541;-83
2023/01/13 00:36:42;;;;;;;21.35;4.03;;;9.40;75.40;;;;;;5047870;28;20160;-83
2023/01/13 00:39:09;;;;;;;18.60;2.75;;;9.40;75.50;;;;;;5046345;28;20127;-82
2023/01/13 00:44:16;;;;;;;19.55;3.08;;;9.30;75.40;;;;;;5046347;28;20051;-83
2023/01/13 00:46:45;;;;;;;19.10;2.77;;;9.20;75.50;;;;;;5047885;28;20080;-82
2023/01/13 00:49:12;;;;;;;17.38;2.50;;;9.20;75.60;;;;;;5047405;28;20132;-83
2023/01/13 00:51:39;;;;;;;21.40;2.95;;;9.20;75.40;;;;;;5048164;28;20085;-81
2023/01/13 00:54:06;;;;;;;21.65;3.60;;;9.20;75.40;;;;;;5047877;28;20048;-82
2023/01/13 00:56:33;;;;;;;19.27;3.08;;;9.10;75.70;;;;;;5046258;28;20054;-82
2023/01/13 00:59:01;;;;;;;25.27;3.93;;;9.10;75.40;;;;;;5047781;28;20091;-83
2023/01/13 01:01:28;;;;;;;23.25;3.70;;;9.00;75.70;;;;;;5047551;28;20528;-82
2023/01/13 01:03:56;;;;;;;18.63;2.60;;;9.00;75.70;;;;;;5049129;28;20155;-83
2023/01/13 01:06:25;;;;;;;22.60;3.97;;;9.00;76.00;;;;;;5047291;28;20119;-83
2023/01/13 01:08:53;;;;;;;23.48;3.58;;;9.00;75.90;;;;;;5047202;28;20598;-82
2023/01/13 01:11:22;;;;;;;24.17;3.73;;;9.00;76.10;;;;;;5046901;28;20519;-83
2023/01/13 01:13:51;;;;;;;20.20;3.38;;;9.00;76.30;;;;;;5045816;28;20052;-83
2023/01/13 01:16:20;;;;;;;19.95;3.00;;;9.00;76.50;;;;;;5030587;28;20046;-82
2023/01/13 01:18:48;;;;;;;16.25;2.85;;;9.00;76.70;;;;;;5047149;28;20049;-82
2023/01/13 01:21:18;;;;;;;22.60;3.25;;;9.00;77.00;;;;;;5030928;28;20164;-84
2023/01/13 01:23:45;;;;;;;22.50;3.27;;;9.00;77.20;;;;;;5047441;28;20161;-82
2023/01/13 01:26:14;;;;;;;21.17;3.40;;;9.00;77.40;;;;;;5047082;28;20059;-82
2023/01/13 01:28:41;;;;;;;18.95;2.88;;;9.00;77.80;;;;;;5047454;28;20081;-82
2023/01/13 01:31:10;;;;;;;19.52;2.97;;;9.00;77.90;;;;;;5044418;28;20518;-82
2023/01/13 01:33:37;;;;;;;19.70;3.13;;;9.00;78.20;;;;;;5047567;28;20128;-82
2023/01/13 01:36:04;;;;;;;16.13;2.70;;;9.00;78.30;;;;;;5047087;28;20502;-84
2023/01/13 01:38:33;;;;;;;24.23;3.17;;;9.00;78.30;;;;;;5030314;28;20132;-82
2023/01/13 01:41:00;;;;;;;15.80;2.40;;;9.00;78.10;;;;;;5046600;28;20042;-82
2023/01/13 01:44:01;;;;;;;19.25;3.40;;;9.00;78.00;;;;;;5047480;28;20599;-83
2023/01/13 01:46:29;;;;;;;20.63;3.20;;;9.00;78.00;;;;;;5046633;28;20571;-82
2023/01/13 01:49:02;;;;;;;20.43;2.80;;;9.00;78.00;;;;;;5028939;28;20698;-82
2023/01/13 01:51:33;;;;;;;19.98;2.88;;;9.00;77.80;;;;;;5046965;28;20124;-84
2023/01/13 01:54:04;;;;;;;20.27;3.13;;;8.90;77.80;;;;;;5046515;28;20132;-84
2023/01/13 01:56:32;;;;;;;22.50;3.50;;;8.90;77.60;;;;;;5046857;28;20136;-83
2023/01/13 01:58:59;;;;;;;21.83;2.80;;;8.90;77.30;;;;;;5046394;28;20077;-82
2023/01/13 02:01:27;;;;;;;24.57;3.33;;;8.90;77.20;;;;;;5046803;28;20053;-82
2023/01/13 02:03:59;;;;;;;21.67;3.20;;;9.00;76.90;;;;;;5013872;28;20065;-84
2023/01/13 02:06:27;;;;;;;20.58;2.92;;;8.90;76.70;;;;;;5046513;28;20089;-83
2023/01/13 02:08:54;;;;;;;17.88;2.65;;;8.90;76.50;;;;;;5046375;28;20647;-84
2023/01/13 02:14:16;;;;;;;23.77;3.87;;;8.90;76.20;;;;;;5046281;28;20132;-84
2023/01/13 02:16:52;;;;;;;19.40;3.30;;;8.90;75.90;;;;;;5046603;28;20628;-83
2023/01/13 02:19:55;;;;;;;17.80;2.22;;;8.90;76.00;;;;;;5030009;28;20578;-82
2023/01/13 02:22:35;;;;;;;19.08;2.40;;;8.90;76.00;;;;;;5044835;28;20563;-82
2023/01/13 02:25:37;;;;;;;25.15;3.08;;;8.90;76.20;;;;;;5046314;28;20100;-84
2023/01/13 02:28:22;;;;;;;23.57;3.83;;;8.80;76.40;;;;;;5046317;28;20053;-85
2023/01/13 02:34:01;;;;;;;24.00;3.75;;;8.80;76.30;;;;;;5045863;28;20447;-82
2023/01/13 02:36:37;;;;;;;21.65;3.17;;;8.80;76.30;;;;;;5046069;28;20045;-85
2023/01/13 02:39:12;;;;;;;22.48;3.03;;;8.80;76.30;;;;;;5046347;28;20062;-84
2023/01/13 02:44:34;;;;;;;19.90;2.85;;;8.80;76.40;;;;;;5045837;28;20583;-83
2023/01/13 02:47:07;;;;;;;22.33;3.45;;;8.80;76.50;;;;;;5045857;28;20057;-83
2023/01/13 02:49:38;;;;;;;15.50;2.75;;;8.70;76.30;;;;;;5046005;28;20164;-86
2023/01/13 02:52:10;;;;;;;25.05;3.63;;;8.80;76.30;;;;;;5030005;28;20056;-83
2023/01/13 02:54:39;;;;;;;26.40;3.80;;;8.70;76.50;;;;;;5046241;28;20116;-82
2023/01/13 02:57:10;;;;;;;22.98;3.67;;;8.60;76.70;;;;;;5045332;28;20483;-82
2023/01/13 02:59:39;;;;;;;23.67;3.38;;;8.60;77.00;;;;;;5029133;28;20511;-83
2023/01/13 03:02:12;;;;;;;20.90;3.47;;;8.60;77.30;;;;;;5046176;28;20559;-82
2023/01/13 03:04:50;;;;;;;23.58;3.63;;;8.60;77.60;;;;;;5045932;28;20171;-86
2023/01/13 03:07:45;;;;;;;21.23;3.30;;;8.60;77.80;;;;;;5045338;28;20450;-82
2023/01/13 03:10:26;;;;;;;27.30;4.20;;;8.70;77.90;;;;;;5045659;28;20053;-84
2023/01/13 03:13:00;;;;;;;24.90;4.22;;;8.60;78.30;;;;;;5028288;28;20662;-85
2023/01/13 03:15:39;;;;;;;18.65;3.45;;;8.70;78.30;;;;;;5045947;28;20189;-84
2023/01/13 03:18:18;;;;;;;23.40;3.70;;;8.70;78.40;;;;;;5045879;28;20046;-83
2023/01/13 03:20:54;;;;;;;23.60;3.50;;;8.60;78.60;;;;;;5027686;28;20129;-83
2023/01/13 03:23:28;;;;;;;24.48;3.70;;;8.70;78.70;;;;;;5062428;28;20482;-85
2023/01/13 03:26:04;;;;;;;26.67;4.13;;;8.70;78.90;;;;;;5025684;28;20053;-84
2023/01/13 03:28:36;;;;;;;26.73;3.67;;;8.60;79.20;;;;;;5025625;28;20058;-83
2023/01/13 03:31:09;;;;;;;23.05;3.58;;;8.60;79.20;;;;;;5036807;28;20123;-82
2023/01/13 03:33:44;;;;;;;24.80;3.73;;;8.70;79.30;;;;;;5045706;28;20049;-83
2023/01/13 03:36:16;;;;;;;28.30;4.25;;;8.70;79.40;;;;;;5028674;28;20545;-84
2023/01/13 03:38:46;;;;;;;22.80;3.70;;;8.80;79.30;;;;;;5045652;28;20504;-83
2023/01/13 03:41:20;;;;;;;26.60;4.28;;;8.80;79.30;;;;;;5028850;28;20050;-85
2023/01/13 03:46:43;;;;;;;26.47;3.83;;;8.80;79.20;;;;;;5045722;28;20069;-83
2023/01/13 03:49:15;;;;;;;29.20;3.88;;;8.80;79.10;;;;;;5043785;28;20080;-83
2023/01/13 03:51:45;;;;;;;22.40;3.28;;;8.80;79.30;;;;;;5045249;28;20168;-84
2023/01/13 03:54:14;;;;;;;20.73;3.45;;;8.80;79.20;;;;;;5030530;28;20143;-84
2023/01/13 03:56:45;;;;;;;30.88;4.28;;;8.80;79.20;;;;;;5032228;28;20058;-86
2023/01/13 03:59:16;;;;;;;21.80;4.17;;;8.80;78.90;;;;;;5031977;28;20448;-84
2023/01/13 04:01:48;;;;;;;22.48;3.28;;;8.80;78.80;;;;;;5032170;28;20053;-83
2023/01/13 04:04:21;;;;;;;21.88;3.17;;;8.80;78.80;;;;;;5030053;28;20049;-84
2023/01/13 04:06:53;;;;;;;20.25;3.17;;;8.80;78.60;;;;;;5031187;28;20620;-82
2023/01/13 04:09:29;;;;;;;26.17;3.90;;;8.80;78.50;;;;;;5048559;28;20660;-82
2023/01/13 04:12:01;;;;;;;16.83;3.67;;;8.80;78.10;;;;;;5048391;28;20062;-84
2023/01/13 04:14:30;;;;;;;24.58;3.22;;;8.80;78.30;;;;;;5047896;28;20519;-82
2023/01/13 04:16:57;;;;;;;17.63;2.75;;;8.80;78.20;;;;;;5049682;28;20154;-81
2023/01/13 04:19:26;;;;;;;27.13;4.38;;;8.80;78.00;;;;;;5048173;28;20571;-82
2023/01/13 04:21:53;;;;;;;25.30;4.85;;;8.90;78.00;;;;;;5046720;28;20085;-83
2023/01/13 04:24:19;;;;;;;18.20;3.70;;;8.80;78.10;;;;;;5049979;28;20085;-81
2023/01/13 04:26:46;;;;;;;20.25;3.38;;;8.80;77.90;;;;;;5048478;28;20056;-81
2023/01/13 04:29:13;;;;;;;27.33;4.65;;;8.80;77.80;;;;;;5047805;28;20128;-82
2023/01/13 04:31:40;;;;;;;28.75;5.00;;;8.90;77.60;;;;;;5048154;28;20073;-82
2023/01/13 04:34:07;;;;;;;23.45;4.20;;;8.90;77.40;;;;;;5048002;28;20052;-82
2023/01/13 04:36:35;;;;;;;28.00;5.07;;;8.90;77.30;;;;;;5030734;28;20084;-82
2023/01/13 04:39:03;;;;;;;24.98;3.85;;;8.90;77.20;;;;;;5046470;28;20061;-84
2023/01/13 04:41:56;;;;;;;24.73;3.78;;;8.90;77.00;;;;;;5031417;28;20136;-83
2023/01/13 04:44:18;;;;;;;25.95;3.80;;;8.90;76.90;;;;;;5031213;28;20528;-84
2023/01/13 04:46:45;;;;;;;24.02;4.20;;;8.90;76.80;;;;;;5031360;28;20512;-82
2023/01/13 04:49:12;;;;;;;27.57;4.10;;;8.90;76.90;;;;;;5030862;28;20132;-82
2023/01/13 04:51:40;;;;;;;21.05;3.55;;;8.90;76.90;;;;;;5047944;28;20948;-82
2023/01/13 04:54:09;;;;;;;27.25;4.35;;;8.90;76.70;;;;;;5047252;28;20056;-82
2023/01/13 04:56:36;;;;;;;22.30;3.40;;;8.90;76.60;;;;;;5046157;28;20702;-82
2023/01/13 04:59:03;;;;;;;24.88;3.90;;;8.80;76.70;;;;;;5047758;28;20467;-83
2023/01/13 05:01:30;;;;;;;21.90;3.20;;;8.80;76.90;;;;;;5047840;28;21128;-81
2023/01/13 05:03:57;;;;;;;26.75;3.88;;;8.80;76.90;;;;;;5047643;28;20073;-84
2023/01/13 05:06:23;;;;;;;26.38;4.10;;;8.80;77.00;;;;;;5026266;28;20065;-82
2023/01/13 05:08:52;;;;;;;29.30;3.97;;;8.80;76.90;;;;;;5047200;28;20226;-83
2023/01/13 05:17:00;;;;;;;23.13;3.88;;;8.80;76.90;;;;;;5047844;28;20049;-83
2023/01/13 05:19:27;;;;;;;23.98;3.80;;;8.80;76.90;;;;;;5047347;28;20045;-82
2023/01/13 05:27:24;;;;;;;27.73;3.67;;;8.80;76.60;;;;;;5047247;28;20506;-84
2023/01/13 05:29:51;;;;;;;13.90;2.95;;;8.70;76.80;;;;;;5045956;28;20140;-82
2023/01/13 05:32:18;;;;;;;20.58;3.13;;;8.70;76.80;;;;;;5011203;28;20483;-82
2023/01/13 05:34:45;;;;;;;21.42;3.05;;;8.70;76.80;;;;;;5044529;28;20132;-84
2023/01/13 05:37:12;;;;;;;27.10;4.10;;;8.60;76.90;;;;;;5030386;28;20077;-84
2023/01/13 05:45:10;;;;;;;17.98;3.17;;;8.70;76.50;;;;;;5046760;28;20103;-83
2023/01/13 05:47:37;;;;;;;17.33;2.15;;;8.60;76.70;;;;;;5045012;28;20073;-82
2023/01/13 05:50:05;;;;;;;20.45;3.35;;;8.60;76.70;;;;;;5046481;28;20054;-82
2023/01/13 05:52:32;;;;;;;19.53;2.70;;;8.60;76.70;;;;;;5046975;28;20130;-81
2023/01/13 05:55:00;;;;;;;17.90;2.33;;;8.60;76.90;;;;;;5046850;28;20081;-82
2023/01/13 05:57:27;;;;;;;20.67;3.40;;;8.60;77.10;;;;;;5046893;28;20172;-81
2023/01/13 05:59:54;;;;;;;14.88;1.95;;;8.60;77.10;;;;;;5046392;28;20152;-80
2023/01/13 06:02:21;;;;;;;17.13;2.83;;;8.60;77.30;;;;;;5046886;28;20140;-82
2023/01/13 06:04:48;;;;;;;18.17;2.70;;;8.60;77.50;;;;;;5045721;28;20245;-80
2023/01/13 06:07:15;;;;;;;16.95;2.35;;;8.60;77.40;;;;;;5046420;28;20536;-80
2023/01/13 06:09:42;;;;;;;15.35;2.80;;;8.60;77.40;;;;;;5047760;28;20140;-80
2023/01/13 06:12:12;;;;;;;13.60;2.22;;;8.60;77.40;;;;;;5046768;28;20542;-82
2023/01/13 06:14:39;;;;;;;19.30;3.33;;;8.60;77.20;;;;;;5030068;28;20401;-81
2023/01/13 06:17:08;;;;;;;17.47;2.93;;;8.60;77.10;;;;;;5046179;28;20550;-82
2023/01/13 06:19:35;;;;;;;16.98;2.60;;;8.60;76.90;;;;;;5045998;28;20050;-82
2023/01/13 06:22:07;;;;;;;21.20;3.17;;;8.60;76.90;;;;;;5044786;28;20045;-81
2023/01/13 06:24:35;;;;;;;16.20;3.08;;;8.60;76.80;;;;;;5063097;28;20131;-83
2023/01/13 06:27:04;;;;;;;15.90;3.17;;;8.60;76.80;;;;;;5047793;28;20606;-80
2023/01/13 06:29:32;;;;;;;17.03;3.03;;;8.60;77.00;;;;;;5044697;28;20050;-80
2023/01/13 06:32:03;;;;;;;15.20;3.65;;;8.60;76.90;;;;;;5029676;28;20053;-80
2023/01/13 06:34:30;;;;;;;16.02;2.80;;;8.60;76.70;;;;;;5046210;28;20535;-82
2023/01/13 06:36:57;;;;;;;18.73;3.33;;;8.60;76.90;;;;;;5046206;28;20079;-82
2023/01/13 06:39:29;;;;;;;17.85;3.72;;;8.60;76.90;;;;;;5044314;28;20053;-83
2023/01/13 06:44:45;;;;;;;17.83;3.13;;;8.60;77.10;;;;;;5046180;28;20196;-81
2023/01/13 06:47:13;;;;;;;17.45;3.28;;;8.60;76.80;;;;;;5029497;28;20111;-82
2023/01/13 06:49:39;;;;;;;13.98;2.53;;;8.60;76.80;;;;;;5045893;28;20539;-82
2023/01/13 06:52:06;;;;;;;15.40;3.10;;;8.60;76.80;;;;;;5046721;28;20466;-82
2023/01/13 06:54:34;;;;;;;16.73;2.70;;;8.60;76.80;;;;;;5046500;28;20141;-81
2023/01/13 06:57:01;;;;;;;12.20;1.48;;;8.60;76.80;;;;;;5044904;28;20053;-81
2023/01/13 06:59:28;;;;;;;13.57;2.55;;;8.60;76.60;;;;;;5047524;28;20064;-82
2023/01/13 07:01:57;;;;;;;14.45;2.03;;;8.60;76.40;;;;;;5047585;28;20060;-81
2023/01/13 07:04:24;;;;;;;12.07;2.22;;;8.60;76.40;;;;;;5045909;28;20139;-81
2023/01/13 07:06:51;;;;;;;15.70;1.87;;;8.50;76.70;;;;;;5045287;28;20681;-82
2023/01/13 07:09:18;;;;;;;14.52;2.00;;;8.50;76.60;;;;;;5045782;28;20058;-81
2023/01/13 07:11:45;;;;;;;11.25;2.17;;;8.50;76.60;;;;;;5029371;28;20508;-81
2023/01/13 07:16:58;;;;;;;17.35;2.22;;;8.60;76.10;;;;;;5046955;28;20060;-82
2023/01/13 07:19:25;;;;;;;15.20;2.20;;;8.60;76.00;;;;;;5045468;28;20059;-84
2023/01/13 07:21:52;;;;;;;13.65;2.53;;;8.60;76.30;;;;;;5045665;28;20524;-83
2023/01/13 07:24:19;;;;;;;12.30;2.25;;;8.60;76.30;;;;;;5028979;28;20495;-83
2023/01/13 07:26:46;;;;;;;12.63;1.90;;;8.50;76.70;;;;;;5045359;28;20057;-82
2023/01/13 07:29:14;;;;;;;13.10;1.98;;;8.50;77.10;;;;;;5047445;28;20120;-82
2023/01/13 07:31:40;;;;;;;13.27;1.93;;;8.50;77.50;;;;;;5047540;28;20136;-82
2023/01/13 07:34:09;;;;;;;9.45;1.30;;;8.50;77.80;;;;;;5048974;28;20046;-84
2023/01/13 07:36:36;;;;;;;11.75;1.77;;;8.50;77.90;;;;;;5048664;28;20512;-82
2023/01/13 07:39:03;;;;;;;14.00;2.25;;;8.50;78.10;;;;;;5032188;28;20195;-82
2023/01/13 07:44:14;;;;;;;15.00;2.50;;;8.40;79.00;;;;;;5048876;28;20574;-83
2023/01/13 07:46:41;;;;;;;11.80;1.77;;;8.30;79.60;;;;;;5048846;28;20488;-83
2023/01/13 07:49:09;;;;;;;18.10;2.20;;;8.30;79.70;;;;;;5047259;28;20520;-82
2023/01/13 07:51:37;;;;;;;17.52;2.17;;;8.30;80.00;;;;;;5049106;28;20504;-82
2023/01/13 07:54:05;;;;;;;12.88;2.50;;;8.30;80.30;;;;;;5032084;28;20463;-82
2023/01/13 07:56:32;;;;;;;12.13;1.43;;;8.20;80.60;;;;;;5048653;28;20664;-86
2023/01/13 07:58:59;;;;;;;16.95;2.15;;;8.20;81.10;;;;;;5048722;28;20128;-84
2023/01/13 08:01:27;;;;;;;14.13;1.60;;;8.10;81.10;;;;;;5048947;28;20689;-84
2023/01/13 08:03:54;;;;;;;15.18;2.15;;;8.10;81.30;;;;;;5048511;28;20056;-86
2023/01/13 08:06:23;;;;;;;15.82;2.47;;;8.10;81.50;;;;;;5030878;28;20056;-85
2023/01/13 08:08:50;;;;;;;15.90;2.33;;;8.10;81.70;;;;;;5031474;28;21047;-84
2023/01/13 08:11:17;;;;;;;17.42;2.70;;;8.10;82.00;;;;;;5048624;28;20495;-84
2023/01/13 08:13:44;;;;;;;13.10;1.80;;;8.10;82.00;;;;;;5031870;28;20590;-85
2023/01/13 08:16:14;;;;;;;18.85;2.90;;;8.00;81.90;;;;;;5048310;28;20504;-85
2023/01/13 08:18:41;;;;;;;19.42;2.90;;;8.00;82.40;;;;;;5048585;28;20132;-84
2023/01/13 08:21:10;;;;;;;15.30;2.30;;;8.00;82.30;;;;;;5048601;28;20785;-84
2023/01/13 08:23:39;;;;;;;16.90;2.20;;;8.00;82.40;;;;;;5031324;28;20133;-84
2023/01/13 08:26:07;;;;;;;29.63;2.22;;;8.00;82.70;;;;;;5048878;28;20532;-84
2023/01/13 08:28:35;;;;;;;14.00;1.98;;;8.00;82.50;;;;;;5048310;28;20503;-84
2023/01/13 08:31:03;;;;;;;18.42;2.58;;;8.00;82.80;;;;;;5048077;28;20053;-84
2023/01/13 08:33:31;;;;;;;17.07;2.77;;;8.00;83.10;;;;;;5048099;28;20520;-83
2023/01/13 08:35:58;;;;;;;11.95;2.03;;;8.00;83.20;;;;;;5047957;28;20132;-83
2023/01/13 08:38:25;;;;;;;16.15;2.25;;;8.00;83.20;;;;;;5048282;28;20559;-85
2023/01/13 08:40:54;;;;;;;19.27;2.72;;;8.00;83.30;;;;;;5046458;28;20140;-83
2023/01/13 08:43:21;;;;;;;15.02;1.80;;;8.00;83.30;;;;;;5048092;28;20170;-83
2023/01/13 08:45:56;;;;;;;18.47;2.67;;;8.00;83.40;;;;;;5047752;28;20057;-83
2023/01/13 08:48:23;;;;;;;18.30;2.60;;;8.00;83.60;;;;;;5048114;28;20512;-84
2023/01/13 08:50:50;;;;;;;17.70;2.00;;;8.00;83.50;;;;;;5047970;28;20570;-83
2023/01/13 08:53:17;;;;;;;14.25;2.55;;;8.00;83.10;;;;;;5048093;28;20058;-85
2023/01/13 08:55:44;;;;;;;12.52;1.33;;;8.00;83.00;;;;;;5047224;28;20054;-83
2023/01/13 08:58:12;;;;;;;17.33;2.53;;;8.00;82.60;;;;;;5047306;28;20057;-83
2023/01/13 09:00:39;;;;;;;16.90;2.92;;;8.00;82.70;;;;;;5047607;28;20053;-84
2023/01/13 09:03:06;;;;;;;15.13;2.42;;;8.00;82.60;;;;;;5031148;28;20071;-85
2023/01/13 09:05:34;;;;;;;15.50;2.45;;;8.00;82.50;;;;;;5048864;28;20058;-84
2023/01/13 09:08:01;;;;;;;17.52;1.75;;;8.00;82.30;;;;;;5064106;28;20062;-83
2023/01/13 09:10:28;;;;;;;16.43;2.63;;;8.00;82.40;;;;;;5047777;28;20326;-83
2023/01/13 09:13:12;;;;;;;15.00;2.28;;;8.00;82.50;;;;;;5047482;28;20417;-83
2023/01/13 09:15:43;;;;;;;17.63;2.58;;;8.00;82.30;;;;;;5044127;28;20065;-83
2023/01/13 09:18:10;;;;;;;15.13;2.25;;;8.00;82.60;;;;;;5048002;28;20538;-85
2023/01/13 09:20:37;;;;;;;17.05;2.53;;;8.00;82.40;;;;;;5030795;28;20057;-84
2023/01/13 09:23:05;;;;;;;13.03;2.30;;;8.00;82.30;;;;;;5047278;28;20054;-84
2023/01/13 09:25:34;;;;;;;16.77;2.90;;;8.10;81.90;;;;;;5047616;28;20057;-83
2023/01/13 09:28:01;;;;;;;21.08;3.28;;;8.10;82.20;;;;;;5047314;28;20360;-85
2023/01/13 09:30:28;;;;;;;22.90;2.97;;;8.10;82.00;;;;;;5029896;28;20041;-85
2023/01/13 09:35:38;;;;;;;13.60;2.17;;;8.10;82.20;;;;;;5046323;28;20132;-87
2023/01/13 09:38:06;;;;;;;18.83;2.30;;;8.10;82.30;;;;;;5031343;28;20053;-85
2023/01/13 09:40:33;;;;;;;18.50;2.97;;;8.10;82.30;;;;;;5047205;28;20542;-84
2023/01/13 09:45:55;;;;;;;19.48;2.85;;;8.10;82.30;;;;;;5030457;28;20555;-84
2023/01/13 09:48:28;;;;;;;18.20;2.87;;;8.10;82.40;;;;;;5046091;28;20053;-83
2023/01/13 09:51:08;;;;;;;15.77;2.50;;;8.20;82.40;;;;;;5046462;28;20055;-84
2023/01/13 09:53:40;;;;;;;15.10;1.83;;;8.10;82.50;;;;;;5030738;28;20045;-86
2023/01/13 09:56:10;;;;;;;17.63;2.63;;;8.20;82.80;;;;;;5047513;28;20625;-86
2023/01/13 09:58:37;;;;;;;20.83;2.78;;;8.10;82.90;;;;;;5030766;28;20426;-85
2023/01/13 10:01:22;;;;;;;18.93;2.87;;;8.10;83.20;;;;;;5030819;28;20125;-86
2023/01/13 10:03:50;;;;;;;17.58;2.40;;;8.10;83.50;;;;;;5030890;28;20061;-85
2023/01/13 10:06:20;;;;;;;15.00;3.03;;;8.10;83.70;;;;;;5029150;28;20500;-84
2023/01/13 10:08:49;;;;;;;19.60;2.63;;;8.10;83.90;;;;;;5029879;28;20053;-83
2023/01/13 10:14:12;;;;;;;15.23;2.20;;;8.10;84.00;;;;;;5046740;28;20466;-86
2023/01/13 10:16:45;;;;;;;16.77;2.67;;;8.10;84.10;;;;;;5030522;28;20653;-85
2023/01/13 10:19:18;;;;;;;19.05;2.88;;;8.20;84.30;;;;;;5030229;28;20064;-85
2023/01/13 10:22:10;;;;;;;17.85;2.45;;;8.10;84.50;;;;;;5029563;28;20113;-85
2023/01/13 10:24:57;;;;;;;18.98;2.95;;;8.10;84.80;;;;;;5046981;28;20149;-83
2023/01/13 10:27:31;;;;;;;18.07;3.23;;;8.10;85.00;;;;;;5030031;28;20107;-86
2023/01/13 10:29:58;;;;;;;19.35;3.20;;;8.10;85.10;;;;;;5030058;28;20053;-84
2023/01/13 10:32:25;;;;;;;20.77;2.95;;;8.10;85.20;;;;;;5047284;28;20175;-84
2023/01/13 10:34:56;;;;;;;17.17;2.30;;;8.20;85.00;;;;;;5030517;28;20053;-84
2023/01/13 10:37:25;;;;;;;12.68;1.88;;;8.20;85.20;;;;;;5046464;28;20057;-85
2023/01/13 10:39:55;;;;;;;20.30;3.30;;;8.20;85.40;;;;;;5028767;28;20180;-86
2023/01/13 10:42:24;;;;;;;17.52;2.10;;;8.20;85.50;;;;;;5046834;28;20533;-84
2023/01/13 10:44:52;;;;;;;24.42;3.25;;;8.10;85.40;;;;;;5029800;28;20133;-84
2023/01/13 10:47:25;;;;;;;17.60;2.60;;;8.10;85.80;;;;;;5046229;28;20049;-85
2023/01/13 10:50:05;;;;;;;18.65;2.38;;;8.20;85.70;;;;;;5046611;28;20199;-83
2023/01/13 10:52:35;;;;;;;21.63;2.83;;;8.10;85.80;;;;;;5046366;28;20698;-84
2023/01/13 10:55:03;;;;;;;19.75;2.65;;;8.10;85.80;;;;;;5029906;28;20053;-87
2023/01/13 10:57:35;;;;;;;20.50;2.92;;;8.20;85.90;;;;;;5045319;28;20077;-86
2023/01/13 11:00:05;;;;;;;18.83;2.97;;;8.20;86.00;;;;;;5046502;28;20507;-84
2023/01/13 11:02:35;;;;;;;17.50;3.13;;;8.20;86.00;;;;;;5047249;28;20127;-85
2023/01/13 11:05:17;;;;;;;19.53;2.90;;;8.20;85.90;;;;;;5050079;28;20041;-84
2023/01/13 11:07:50;;;;;;;17.38;2.28;;;8.20;85.60;;;;;;5049668;28;20057;-85
2023/01/13 11:10:21;;;;;;;18.38;2.30;;;8.20;85.50;;;;;;5033111;28;20482;-85
2023/01/13 11:12:56;;;;;;;15.30;2.53;;;8.20;85.70;;;;;;5049534;28;20098;-84
2023/01/13 11:15:38;;;;;;;21.83;2.95;;;8.20;85.90;;;;;;5031111;28;20050;-83
2023/01/13 11:18:13;;;;;;;16.17;2.60;;;8.20;85.90;;;;;;5049790;28;20077;-85
2023/01/13 11:20:45;;;;;;;16.02;2.38;;;8.20;85.60;;;;;;5032840;28;20099;-85
2023/01/13 11:23:17;;;;;;;20.17;2.70;;;8.20;85.20;;;;;;5049503;28;20127;-87
2023/01/13 11:25:50;;;;;;;17.35;2.47;;;8.20;84.90;;;;;;5049444;28;20126;-85
2023/01/13 11:28:35;;;;;;;17.42;2.35;;;8.30;84.10;;;;;;5032562;28;20046;-85
2023/01/13 11:31:09;;;;;;;15.37;1.97;;;8.30;84.10;;;;;;5047418;28;20682;-85
2023/01/13 11:33:41;;;;;;;20.25;3.00;;;8.30;84.00;;;;;;5028761;28;20042;-83
2023/01/13 11:36:13;;;;;;;15.18;2.28;;;8.30;83.50;;;;;;5041892;28;20539;-84
2023/01/13 11:38:47;;;;;;;16.23;2.80;;;8.30;83.30;;;;;;5049467;28;20530;-85
2023/01/13 11:41:39;;;;;;;16.88;2.20;;;8.40;83.50;;;;;;5029531;28;20141;-83
2023/01/13 11:44:19;;;;;;;13.07;2.50;;;8.40;83.40;;;;;;5020742;28;20769;-86
2023/01/13 11:46:49;;;;;;;14.93;2.50;;;8.40;83.20;;;;;;5049480;28;20137;-85
2023/01/13 11:49:23;;;;;;;18.35;2.20;;;8.40;83.20;;;;;;5030758;28;20053;-84
2023/01/13 11:51:58;;;;;;;12.70;2.30;;;8.40;83.20;;;;;;5049328;28;20508;-84
2023/01/13 11:54:47;;;;;;;15.80;2.08;;;8.50;82.80;;;;;;5049270;28;20507;-85
2023/01/13 11:57:38;;;;;;;14.67;2.00;;;8.40;82.40;;;;;;5048639;28;20060;-81
2023/01/13 12:00:26;;;;;;;11.02;1.50;;;8.50;82.40;;;;;;5031266;28;20045;-81
2023/01/13 12:03:18;;;;;;;16.05;2.03;;;8.50;82.50;;;;;;5050344;28;20084;-81
2023/01/13 12:06:01;;;;;;;12.52;2.00;;;8.50;82.30;;;;;;5047131;28;20177;-83
2023/01/13 12:09:10;;;;;;;12.45;2.22;;;8.50;82.40;;;;;;5048345;28;20072;-82
2023/01/13 12:14:45;;;;;;;16.15;2.20;;;8.60;81.40;;;;;;5047561;28;20057;-82
2023/01/13 12:17:26;;;;;;;17.67;2.45;;;8.60;81.20;;;;;;5028586;28;20177;-81
2023/01/13 12:19:53;;;;;;;13.27;2.03;;;8.60;80.90;;;;;;5030782;28;20057;-84
2023/01/13 12:22:26;;;;;;;12.10;1.58;;;8.60;80.50;;;;;;5046756;28;20671;-81
2023/01/13 12:25:00;;;;;;;10.73;1.40;;;8.60;80.00;;;;;;5048008;28;20132;-81
2023/01/13 12:27:35;;;;;;;13.57;2.10;;;8.70;79.80;;;;;;5048739;28;20136;-81
2023/01/13 12:30:13;;;;;;;12.65;1.80;;;8.80;79.70;;;;;;5047699;28;20147;-83
2023/01/13 12:32:41;;;;;;;13.52;1.42;;;8.80;79.30;;;;;;5049788;28;20623;-80
2023/01/13 12:35:22;;;;;;;10.70;2.28;;;8.90;79.10;;;;;;5047937;28;20129;-80
2023/01/13 12:37:57;;;;;;;13.63;1.80;;;8.80;78.90;;;;;;5049691;28;20078;-80
2023/01/13 12:40:38;;;;;;;8.93;1.88;;;8.90;79.10;;;;;;5047878;28;20401;-81
2023/01/13 12:46:32;;;;;;;8.90;1.30;;;8.90;78.70;;;;;;5049064;28;20054;-80
2023/01/13 12:49:06;;;;;;;8.57;1.40;;;8.90;78.20;;;;;;5047205;28;20101;-80
2023/01/13 12:51:36;;;;;;;11.53;1.57;;;8.90;77.70;;;;;;5047529;28;20041;-79
2023/01/13 12:54:24;;;;;;;11.82;1.40;;;8.90;78.30;;;;;;5031469;28;20480;-80
2023/01/13 12:56:53;;;;;;;10.57;1.80;;;8.90;78.40;;;;;;5046827;28;20765;-79
2023/01/13 12:59:34;;;;;;;13.23;2.28;;;8.90;78.60;;;;;;5047376;28;20060;-80
2023/01/13 13:02:33;;;;;;;9.52;1.65;;;8.90;78.10;;;;;;5047524;28;20139;-78
2023/01/13 13:05:36;;;;;;;10.13;1.77;;;8.90;77.60;;;;;;4989898;28;20137;-79
2023/01/13 13:08:18;;;;;;;10.93;1.60;;;9.00;77.40;;;;;;4995883;28;20577;-79
2023/01/13 13:10:57;;;;;;;7.43;1.27;;;8.90;77.70;;;;;;5029293;28;20798;-79
2023/01/13 13:13:41;;;;;;;9.57;1.75;;;9.00;77.50;;;;;;5045545;28;20129;-79
2023/01/13 13:16:59;;;;;;;13.48;1.65;;;9.00;77.30;;;;;;5047178;28;20050;-80
2023/01/13 13:19:43;;;;;;;5.03;0.70;;;9.00;77.40;;;;;;5029101;28;20062;-79
2023/01/13 13:22:38;;;;;;;8.77;1.25;;;9.00;76.90;;;;;;5047433;28;20560;-80
2023/01/13 13:25:24;;;;;;;9.60;1.67;;;9.00;76.90;;;;;;5030968;28;20132;-81
2023/01/13 13:28:14;;;;;;;8.15;1.20;;;9.00;76.80;;;;;;5047697;28;20053;-79
2023/01/13 13:31:03;;;;;;;9.80;1.40;;;9.00;76.80;;;;;;5044725;28;20053;-80
2023/01/13 13:33:43;;;;;;;10.33;1.77;;;9.00;76.60;;;;;;5047241;28;20176;-80
2023/01/13 13:36:25;;;;;;;11.98;1.70;;;9.00;76.60;;;;;;5047255;28;20111;-81
2023/01/13 13:47:36;;;;;;;9.90;1.80;;;9.10;76.50;;;;;;5124515;27;20381;-83
2023/01/13 13:50:07;;;;;;;5.70;0.90;;;9.10;76.80;;;;;;5122767;27;20247;-81
2023/01/13 13:52:39;;;;;;;8.68;1.35;;;9.10;76.70;;;;;;5125189;27;20048;-82
2023/01/13 13:55:16;;;;;;;7.15;1.25;;;9.20;76.50;;;;;;5124833;27;20059;-80
2023/01/13 13:57:46;;;;;;;6.65;0.75;;;9.20;76.50;;;;;;5106924;27;20050;-81
2023/01/13 14:00:25;;;;;;;14.30;1.83;;;9.10;76.40;;;;;;5103490;28;20059;-79
2023/01/13 14:02:59;;;;;;;8.82;1.25;;;9.10;76.50;;;;;;5106182;27;20263;-80
2023/01/13 14:05:28;;;;;;;10.95;1.70;;;9.10;76.70;;;;;;5122839;27;20109;-79
2023/01/13 14:07:59;;;;;;;10.07;1.70;;;9.10;77.00;;;;;;5124169;27;20579;-84
2023/01/13 14:10:31;;;;;;;12.70;1.65;;;9.10;76.90;;;;;;5106822;27;20044;-85
2023/01/13 14:13:01;;;;;;;10.43;1.40;;;9.10;76.90;;;;;;5124234;27;20048;-86
2023/01/13 14:15:34;;;;;;;8.80;1.27;;;9.10;76.80;;;;;;5126529;27;20275;-86